サンティアゴ の空港の天気 - METARとTAF

アルトゥーロ・メリノ・ベニテス国際空港(サンティアゴ) ( SCEL / SCL ) - チリ サンティアゴ
飛行場実況気象(Metar)
観測時間12/13 11:00 CLST (12/13 14:00 UTC)
風向・風速南南西 4m/s
視程10km以上
天気現象
なし
気温17℃
湿度48%
気圧1018hPa
METARSCEL 131400Z 21007KT 180V260 CAVOK 17/06 Q1018 NOSIG
過去の天気等 Google飛行場航空写真 Wunderground天気予報

過去48時間のMETAR

飛行場予報(TAF)
発表時間: 12/13 07:10 CLST (12/13 10:10 UTC)
予報対象時間: 13日9時 CLST ~ 14日9時 CLST
風向・風速南南東 3m/s
視程10km以上
なし
13日13時 CLST ~ 13日15時 CLST に徐々に
風向・風速南 5m/s
13日15時 CLST ~ 13日17時 CLST に徐々に
風向・風速南南西 8m/s
少しの雲 雲底高度 1520m
全天の8割程度の雲 雲底高度 6100m
13日22時 CLST ~ 13日24時 CLST に徐々に
風向・風速南南東 3m/s
視程10km以上
なし
14日3時 CLST ~ 14日9時 CLST に一時的に
風向・風速不定 1m/s
視程7000m
なし
TAF SCEL 131010Z 1312/1412 16006KT CAVOK TX24/1319Z TN11/1411Z
BECMG 1316/1318 19010KT
BECMG 1318/1320 21016KT FEW050 BKN200
BECMG 1401/ 1403 16006KT CAVOK
TEMPO 1406/1412 VRB02KT 7000 NSC